Hlavní strana
METAR-TAF:

METAR-TAF

Letiště :

Glasgow Municipal Airport

Glasgow, Kentucky, Spojené státy americké

zeměpisná šířka: 37-01-54N, zeměpisná délka: 085-57-13W, výška: 218 m

Aktuální stav počasí

Zpráva byla vytvořena před 12 minutami, v 00:55 UTC
Bezvětří
Teplota 9°C
Vlhkost vzduchu 76%
Tlak 1014 hPa
Viditelnost: 16.1 km
Oblačno až skoro zataženo ve výšce 2200 ft
Zataženo ve výšce 5000 ft

METAR: KGLW 200055Z AUTO 00000KT 10SM BKN022 OVC050 09/05 A2995 RMK AO2 T00860048

Čas: 19:07 (01:07 UTC)


TAF: chybějící

Stav a předpovědi počasí z více než 4 000 letišť (zprávy METAR a TAF).

Červené a žluté tečky na mapě představují dostupné meteorologické stanice.

Když kurzor umístíte na tečku, zobrazí se název stanice.

Pak kliknutím zobrazíte stav a předpověď počasí.

Chcete-li změnit mapu, kliknutím na zelené tlačítko se znaménkem +mapu přiblížíte, kliknutím na zelené tlačítko se znaménkem – mapu oddálíte a kliknutím na zelené šipky přejdete na sousední mapy.


METAR-TAF: